Time;durP1;ratioP1;P1;durP2;ratioP2;P2;SDS_P1;SDS_P2;PMS_P1;PMS_P2;Temp;Humidity;BMP_temperature;BMP_pressure;BME280_temperature;BME280_humidity;BME280_pressure;Samples;Min_cycle;Max_cycle;Signal;HPM_P1;HPM_P2
2022/09/27 00:00:05;;;;;;;2.40;0.63;;;12.90;99.90;;;;;;5081695;28;20206;-35
2022/09/27 00:02:32;;;;;;;3.67;0.70;;;12.90;99.90;;;;;;5076204;28;20215;-34
2022/09/27 00:05:01;;;;;;;3.13;0.60;;;12.90;99.90;;;;;;5085639;28;20535;-35
2022/09/27 00:07:29;;;;;;;1.23;0.57;;;12.90;99.90;;;;;;5088120;28;20214;-34
2022/09/27 00:10:01;;;;;;;2.47;0.60;;;12.90;99.90;;;;;;5087712;28;20211;-35
2022/09/27 00:12:33;;;;;;;1.33;0.67;;;12.90;99.90;;;;;;5071820;28;20204;-36
2022/09/27 00:15:01;;;;;;;3.00;0.70;;;12.80;99.90;;;;;;5075190;28;20748;-35
2022/09/27 00:17:30;;;;;;;2.90;0.80;;;12.80;99.90;;;;;;5078686;28;20238;-35
2022/09/27 00:20:03;;;;;;;1.77;0.70;;;12.80;99.90;;;;;;5085743;28;20211;-35
2022/09/27 00:22:32;;;;;;;2.27;1.07;;;12.80;99.90;;;;;;5094447;28;20620;-35
2022/09/27 00:25:06;;;;;;;1.00;0.60;;;12.80;99.90;;;;;;5080950;28;20203;-35
2022/09/27 00:27:36;;;;;;;2.43;0.70;;;12.80;99.90;;;;;;5099988;27;20575;-35
2022/09/27 00:30:06;;;;;;;3.90;0.70;;;12.80;99.90;;;;;;5083625;28;20975;-36
2022/09/27 00:32:35;;;;;;;2.50;0.80;;;12.80;99.90;;;;;;5082955;28;20210;-37
2022/09/27 00:35:03;;;;;;;3.40;1.03;;;12.80;99.90;;;;;;5085243;28;20207;-37
2022/09/27 00:37:30;;;;;;;2.03;0.73;;;12.80;99.90;;;;;;5084102;28;20680;-36
2022/09/27 00:39:57;;;;;;;3.80;1.00;;;12.80;99.90;;;;;;5094353;28;20205;-34
2022/09/27 00:42:29;;;;;;;2.83;0.90;;;12.70;99.90;;;;;;5073705;28;20314;-35
2022/09/27 00:45:03;;;;;;;2.13;0.90;;;12.70;99.90;;;;;;5085298;28;20311;-35
2022/09/27 00:47:39;;;;;;;2.90;1.00;;;12.70;99.90;;;;;;5089956;28;20228;-35
2022/09/27 00:50:31;;;;;;;2.63;0.90;;;12.70;99.90;;;;;;5083163;28;20230;-35
2022/09/27 00:53:23;;;;;;;2.17;1.00;;;12.70;99.90;;;;;;5065033;28;20196;-35
2022/09/27 00:55:56;;;;;;;3.40;1.20;;;12.70;99.90;;;;;;5086615;28;20205;-36
2022/09/27 00:58:30;;;;;;;4.87;1.00;;;12.70;99.90;;;;;;5071570;28;20222;-29
2022/09/27 01:01:05;;;;;;;3.07;0.90;;;12.70;99.90;;;;;;5072079;28;20204;-29
2022/09/27 01:03:46;;;;;;;3.70;0.90;;;12.70;99.90;;;;;;5076110;28;20210;-29
2022/09/27 01:06:19;;;;;;;2.93;0.87;;;12.70;99.90;;;;;;5081166;28;20214;-28
2022/09/27 01:08:47;;;;;;;2.57;0.90;;;12.70;99.90;;;;;;5067403;28;20223;-28
2022/09/27 01:11:41;;;;;;;3.73;0.87;;;12.70;99.90;;;;;;5075962;28;20238;-33
2022/09/27 01:14:11;;;;;;;1.77;0.70;;;12.70;99.90;;;;;;5066447;28;20227;-32
2022/09/27 01:17:00;;;;;;;2.07;0.60;;;12.70;99.90;;;;;;5081757;28;20196;-32
2022/09/27 01:19:36;;;;;;;4.03;0.60;;;12.70;99.90;;;;;;5078679;28;20732;-33
2022/09/27 01:22:15;;;;;;;2.73;0.70;;;12.70;99.90;;;;;;5078643;28;20681;-33
2022/09/27 01:25:20;;;;;;;2.63;0.90;;;12.70;99.90;;;;;;5079406;28;20211;-33
2022/09/27 01:28:09;;;;;;;4.23;0.80;;;12.60;99.90;;;;;;5073233;28;20207;-33
2022/09/27 01:30:45;;;;;;;5.60;0.93;;;12.60;99.90;;;;;;5075738;28;20223;-33
2022/09/27 01:33:25;;;;;;;1.83;0.50;;;12.60;99.90;;;;;;5091469;28;20194;-32
2022/09/27 01:36:15;;;;;;;3.27;1.37;;;12.60;99.90;;;;;;5101048;28;20305;-33
2022/09/27 01:39:09;;;;;;;4.50;0.97;;;12.60;99.90;;;;;;5091643;28;20199;-33
2022/09/27 01:41:59;;;;;;;1.90;0.30;;;12.60;99.90;;;;;;5069563;28;20199;-33
2022/09/27 01:45:01;;;;;;;0.77;0.33;;;12.60;99.90;;;;;;5087761;28;20226;-33
2022/09/27 01:47:46;;;;;;;2.70;0.60;;;12.50;99.90;;;;;;5078700;28;20252;-33
2022/09/27 01:50:25;;;;;;;2.50;0.60;;;12.50;99.90;;;;;;5074221;28;20314;-32
2022/09/27 01:53:02;;;;;;;2.70;0.70;;;12.50;99.90;;;;;;5071867;28;20206;-33
2022/09/27 01:55:34;;;;;;;3.20;0.50;;;12.50;99.90;;;;;;5067878;28;20179;-32
2022/09/27 01:58:17;;;;;;;2.83;0.60;;;12.50;99.90;;;;;;5065165;28;20208;-32
2022/09/27 02:00:48;;;;;;;2.90;1.00;;;12.50;99.90;;;;;;5100992;28;20201;-33
2022/09/27 02:03:34;;;;;;;1.57;0.30;;;12.50;99.90;;;;;;5077214;28;20210;-32
2022/09/27 02:06:08;;;;;;;2.00;0.30;;;12.50;99.90;;;;;;5070633;28;20281;-33
2022/09/27 02:08:46;;;;;;;2.53;0.47;;;12.40;99.90;;;;;;5100243;28;20243;-32
2022/09/27 02:11:14;;;;;;;1.40;0.30;;;12.40;99.90;;;;;;5088955;28;20806;-32
2022/09/27 02:13:58;;;;;;;1.93;0.67;;;12.40;99.90;;;;;;5091942;28;20737;-33
2022/09/27 02:16:48;;;;;;;1.57;0.33;;;12.40;99.90;;;;;;5083408;28;20217;-33
2022/09/27 02:19:21;;;;;;;1.40;0.37;;;12.30;99.90;;;;;;5081125;28;20619;-33
2022/09/27 02:22:22;;;;;;;2.43;0.80;;;12.30;99.90;;;;;;5096337;28;20280;-33
2022/09/27 02:25:17;;;;;;;1.37;0.30;;;12.30;99.90;;;;;;5094487;28;20222;-29
2022/09/27 02:27:56;;;;;;;1.83;0.43;;;12.30;99.90;;;;;;5091232;28;20201;-29
2022/09/27 02:30:26;;;;;;;1.30;0.40;;;12.30;99.90;;;;;;5080822;28;20214;-29
2022/09/27 02:32:56;;;;;;;2.40;0.50;;;12.30;99.90;;;;;;5075319;28;20196;-29
2022/09/27 02:35:31;;;;;;;3.50;0.73;;;12.30;99.90;;;;;;5076809;28;20203;-29
2022/09/27 02:38:02;;;;;;;1.20;0.43;;;12.20;99.90;;;;;;5099659;28;20566;-29
2022/09/27 02:40:34;;;;;;;3.20;0.60;;;12.30;99.90;;;;;;5105162;28;20548;-29
2022/09/27 02:43:04;;;;;;;2.73;0.50;;;12.30;99.90;;;;;;5084243;28;20700;-29
2022/09/27 02:45:59;;;;;;;3.33;0.50;;;12.30;99.90;;;;;;5090026;28;20206;-29
2022/09/27 02:48:33;;;;;;;0.80;0.40;;;12.30;99.90;;;;;;5073975;28;20191;-29
2022/09/27 02:51:11;;;;;;;4.57;0.87;;;12.30;99.90;;;;;;5084160;28;20769;-32
2022/09/27 02:53:41;;;;;;;3.53;1.00;;;12.30;99.90;;;;;;5065012;28;20195;-33
2022/09/27 02:56:28;;;;;;;2.90;0.70;;;12.20;99.90;;;;;;5083479;28;20198;-33
2022/09/27 02:59:13;;;;;;;4.53;0.57;;;12.20;99.90;;;;;;5071726;28;20673;-32
2022/09/27 03:02:02;;;;;;;1.67;0.33;;;12.20;99.90;;;;;;5089151;28;20305;-33
2022/09/27 03:04:47;;;;;;;1.30;0.60;;;12.20;99.90;;;;;;5069593;28;20197;-32
2022/09/27 03:07:17;;;;;;;1.07;0.30;;;12.20;99.90;;;;;;5075257;28;20681;-33
2022/09/27 03:09:52;;;;;;;2.03;0.60;;;12.20;99.90;;;;;;5077679;28;20225;-30
2022/09/27 03:12:24;;;;;;;2.17;0.40;;;12.20;99.90;;;;;;5077935;28;20227;-29
2022/09/27 03:15:01;;;;;;;2.33;0.40;;;12.20;99.90;;;;;;5099819;28;20227;-29
2022/09/27 03:17:32;;;;;;;1.83;0.50;;;12.20;99.90;;;;;;5088661;28;20235;-29
2022/09/27 03:20:05;;;;;;;1.53;0.30;;;12.20;99.90;;;;;;5069214;28;20211;-28
2022/09/27 03:22:33;;;;;;;1.87;0.43;;;12.20;99.90;;;;;;5081811;28;20215;-29
2022/09/27 03:25:03;;;;;;;3.80;0.30;;;12.20;99.90;;;;;;5086908;28;20704;-28
2022/09/27 03:27:33;;;;;;;1.90;0.60;;;12.10;99.90;;;;;;5090478;28;20211;-28
2022/09/27 03:30:03;;;;;;;1.40;0.50;;;12.10;99.90;;;;;;5074888;28;20574;-33
2022/09/27 03:32:32;;;;;;;1.43;0.50;;;12.10;99.90;;;;;;5090086;28;20255;-33
2022/09/27 03:35:00;;;;;;;1.90;0.57;;;12.10;99.90;;;;;;5077980;28;20233;-33
2022/09/27 03:37:31;;;;;;;1.10;0.50;;;12.10;99.90;;;;;;5082621;28;20199;-33
2022/09/27 03:39:58;;;;;;;1.40;0.40;;;12.10;99.90;;;;;;5079812;28;20203;-33
2022/09/27 03:42:28;;;;;;;3.13;0.43;;;12.10;99.90;;;;;;5073843;28;20665;-33
2022/09/27 03:44:57;;;;;;;2.10;0.60;;;12.10;99.90;;;;;;5068668;28;20206;-33
2022/09/27 03:47:27;;;;;;;2.57;0.50;;;12.10;99.90;;;;;;5087347;28;20721;-33
2022/09/27 03:49:54;;;;;;;2.10;0.50;;;12.10;99.90;;;;;;5105668;28;20241;-33
2022/09/27 03:52:21;;;;;;;2.70;0.33;;;12.10;99.90;;;;;;5091150;28;20219;-32
2022/09/27 03:54:51;;;;;;;3.67;0.47;;;12.10;99.90;;;;;;5089747;28;20225;-33
2022/09/27 03:57:18;;;;;;;1.33;0.37;;;12.10;99.90;;;;;;5095090;28;20205;-32
2022/09/27 03:59:46;;;;;;;1.57;0.30;;;12.10;99.90;;;;;;5107793;28;20210;-33
2022/09/27 04:02:16;;;;;;;2.20;0.40;;;12.10;99.90;;;;;;5089366;28;20222;-32
2022/09/27 04:04:44;;;;;;;2.67;0.67;;;12.00;99.90;;;;;;5073067;28;20558;-32
2022/09/27 04:07:13;;;;;;;2.67;0.30;;;12.00;99.90;;;;;;5075849;28;20302;-32
2022/09/27 04:09:45;;;;;;;1.50;0.30;;;12.00;99.90;;;;;;5082575;28;20213;-33
2022/09/27 04:12:12;;;;;;;2.00;0.60;;;12.00;99.90;;;;;;5085918;28;20682;-33
2022/09/27 04:14:40;;;;;;;2.83;0.60;;;12.00;99.90;;;;;;5069514;28;20195;-32
2022/09/27 04:17:09;;;;;;;1.43;0.60;;;12.00;99.90;;;;;;5098872;28;20210;-32
2022/09/27 04:19:39;;;;;;;2.37;0.50;;;12.00;99.90;;;;;;5085767;28;20770;-33
2022/09/27 04:22:06;;;;;;;1.53;0.50;;;12.00;99.90;;;;;;5113171;27;20197;-32
2022/09/27 04:24:33;;;;;;;3.03;0.40;;;12.00;99.90;;;;;;5086106;28;20211;-33
2022/09/27 04:27:02;;;;;;;2.80;0.70;;;12.00;99.90;;;;;;5099226;28;20217;-33
2022/09/27 04:29:32;;;;;;;1.00;0.50;;;12.00;99.90;;;;;;5081259;28;20215;-32
2022/09/27 04:32:02;;;;;;;1.10;0.67;;;12.00;99.90;;;;;;5077677;28;20230;-32
2022/09/27 04:37:15;;;;;;;1.27;0.70;;;11.90;99.90;;;;;;5080109;28;20206;-32
2022/09/27 04:39:44;;;;;;;3.07;0.80;;;11.90;99.90;;;;;;5081301;28;20498;-33
2022/09/27 04:42:11;;;;;;;2.33;0.60;;;11.90;99.90;;;;;;5092119;28;20310;-33
2022/09/27 04:44:41;;;;;;;1.67;0.77;;;11.90;99.90;;;;;;5108245;28;20214;-33
2022/09/27 04:47:10;;;;;;;2.07;0.67;;;11.90;99.90;;;;;;5084483;28;20567;-32
2022/09/27 04:49:38;;;;;;;1.53;0.90;;;11.90;99.90;;;;;;5085415;28;20585;-33
2022/09/27 04:52:07;;;;;;;3.83;0.73;;;11.90;99.90;;;;;;5095812;28;20223;-32
2022/09/27 04:54:35;;;;;;;1.43;0.80;;;11.80;99.90;;;;;;5084946;28;20219;-33
2022/09/27 04:57:04;;;;;;;3.70;1.03;;;11.80;99.90;;;;;;5098345;28;20195;-33
2022/09/27 04:59:32;;;;;;;2.87;0.90;;;11.80;99.90;;;;;;5084148;28;20199;-32
2022/09/27 05:02:01;;;;;;;1.93;1.00;;;11.80;99.90;;;;;;5079825;28;20606;-33
2022/09/27 05:04:28;;;;;;;1.50;0.90;;;11.80;99.90;;;;;;5082812;28;20203;-33
2022/09/27 05:06:58;;;;;;;1.33;0.97;;;11.80;99.90;;;;;;5089672;28;20214;-33
2022/09/27 05:09:32;;;;;;;3.63;0.90;;;11.70;99.90;;;;;;5076675;28;20658;-32
2022/09/27 05:12:06;;;;;;;2.20;0.80;;;11.80;99.90;;;;;;5081117;28;20553;-32
2022/09/27 05:14:36;;;;;;;2.47;0.70;;;11.80;99.90;;;;;;5081575;28;20191;-32
2022/09/27 05:17:03;;;;;;;3.17;1.03;;;11.80;99.90;;;;;;5078663;28;20199;-32
2022/09/27 05:19:31;;;;;;;2.40;0.80;;;11.80;99.90;;;;;;5081988;28;20194;-32
2022/09/27 05:22:01;;;;;;;2.53;0.97;;;11.80;99.90;;;;;;5082365;28;20222;-33
2022/09/27 05:24:29;;;;;;;2.13;1.03;;;11.80;99.90;;;;;;5090204;28;20226;-33
2022/09/27 05:26:56;;;;;;;2.57;1.13;;;11.80;99.90;;;;;;5083598;28;20202;-34
2022/09/27 05:29:23;;;;;;;2.17;1.00;;;11.80;99.90;;;;;;5079784;28;20206;-32
2022/09/27 05:31:53;;;;;;;1.67;1.00;;;11.80;99.90;;;;;;5085035;28;20226;-33
2022/09/27 05:34:23;;;;;;;2.63;1.03;;;11.80;99.90;;;;;;5068334;28;20574;-32
2022/09/27 05:36:50;;;;;;;1.43;1.00;;;11.80;99.90;;;;;;5072258;28;20204;-32
2022/09/27 05:39:18;;;;;;;2.43;1.13;;;11.80;99.90;;;;;;5066826;28;20899;-32
2022/09/27 05:41:46;;;;;;;5.53;1.40;;;11.80;99.90;;;;;;5082329;28;20669;-33
2022/09/27 05:44:13;;;;;;;3.40;1.10;;;11.80;99.90;;;;;;5094411;28;20199;-32
2022/09/27 05:46:41;;;;;;;3.00;1.23;;;11.80;99.90;;;;;;5084450;28;20195;-32
2022/09/27 05:49:11;;;;;;;3.67;1.63;;;11.80;99.90;;;;;;5081167;28;20223;-32
2022/09/27 05:51:38;;;;;;;4.47;1.80;;;11.80;99.90;;;;;;5073466;28;20215;-32
2022/09/27 05:54:05;;;;;;;5.83;2.10;;;11.80;99.90;;;;;;5094213;28;20194;-32
2022/09/27 05:56:32;;;;;;;1.50;1.40;;;11.80;99.90;;;;;;5086102;28;21078;-32
2022/09/27 05:58:59;;;;;;;2.83;2.00;;;11.80;99.90;;;;;;5090020;27;20599;-33
2022/09/27 06:01:26;;;;;;;6.73;2.33;;;11.80;99.90;;;;;;5076614;28;20560;-33
2022/09/27 06:03:54;;;;;;;5.77;2.27;;;11.80;99.90;;;;;;5077313;28;20560;-33
2022/09/27 06:06:23;;;;;;;3.20;2.13;;;11.80;99.90;;;;;;5077398;28;20276;-32
2022/09/27 06:08:53;;;;;;;5.27;2.40;;;11.90;99.90;;;;;;5074861;28;20199;-33
2022/09/27 06:11:26;;;;;;;3.47;2.23;;;11.90;99.90;;;;;;5084195;28;20234;-32
2022/09/27 06:13:53;;;;;;;2.67;2.10;;;11.90;99.90;;;;;;5086083;28;20668;-32
2022/09/27 06:16:20;;;;;;;4.47;2.30;;;11.90;99.90;;;;;;5081528;28;20338;-33
2022/09/27 06:18:53;;;;;;;4.47;2.13;;;11.90;99.90;;;;;;5072932;28;20256;-33
2022/09/27 06:21:21;;;;;;;4.77;2.40;;;11.90;99.90;;;;;;5083486;28;20357;-33
2022/09/27 06:23:51;;;;;;;5.33;2.47;;;11.90;99.90;;;;;;5078231;28;20293;-33
2022/09/27 06:26:20;;;;;;;3.50;2.33;;;11.90;99.90;;;;;;5065214;28;20214;-32
2022/09/27 06:28:50;;;;;;;4.90;2.33;;;11.90;99.90;;;;;;5063975;28;20211;-32
2022/09/27 06:31:18;;;;;;;3.50;2.30;;;12.00;99.90;;;;;;5064760;28;20464;-33
2022/09/27 06:33:45;;;;;;;4.43;2.70;;;12.00;99.90;;;;;;5084282;28;20218;-33
2022/09/27 06:36:12;;;;;;;3.77;2.80;;;12.00;99.90;;;;;;5080341;28;20593;-33
2022/09/27 06:38:40;;;;;;;4.73;2.50;;;12.00;99.90;;;;;;5083375;28;20199;-33
2022/09/27 06:41:08;;;;;;;7.07;2.50;;;12.00;99.90;;;;;;5083397;28;20222;-32
2022/09/27 06:43:35;;;;;;;4.83;2.50;;;12.00;99.90;;;;;;5084007;28;20289;-33
2022/09/27 06:46:08;;;;;;;2.97;2.50;;;12.00;99.90;;;;;;5082812;28;20203;-33
2022/09/27 06:48:38;;;;;;;4.00;2.10;;;12.00;99.90;;;;;;5086906;28;20252;-33
2022/09/27 06:51:10;;;;;;;2.60;1.83;;;12.10;99.90;;;;;;5086966;28;20215;-33
2022/09/27 06:53:37;;;;;;;7.20;2.10;;;12.10;99.90;;;;;;5089443;28;20205;-32
2022/09/27 06:56:07;;;;;;;6.40;2.77;;;12.10;99.90;;;;;;5088302;28;20209;-33
2022/09/27 07:01:27;;;;;;;5.13;2.00;;;12.10;99.90;;;;;;5086002;28;20577;-33
2022/09/27 07:03:54;;;;;;;2.97;1.70;;;12.10;99.90;;;;;;5088156;28;20233;-33
2022/09/27 07:06:24;;;;;;;4.13;2.40;;;12.10;99.90;;;;;;5074891;28;20285;-33
2022/09/27 07:08:53;;;;;;;6.83;2.73;;;12.10;99.90;;;;;;5088672;28;20682;-33
2022/09/27 07:11:24;;;;;;;6.90;2.67;;;12.10;99.90;;;;;;5085127;28;20222;-32
2022/09/27 07:13:52;;;;;;;3.47;2.13;;;12.10;99.90;;;;;;5068915;28;20264;-33
2022/09/27 07:16:19;;;;;;;3.13;1.83;;;12.10;99.90;;;;;;5072175;28;20780;-33
2022/09/27 07:18:50;;;;;;;3.70;1.73;;;12.20;99.90;;;;;;5088620;28;20238;-32
2022/09/27 07:21:20;;;;;;;9.53;3.07;;;12.20;99.90;;;;;;5087515;28;20238;-33
2022/09/27 07:23:47;;;;;;;3.80;1.83;;;12.20;99.90;;;;;;5087574;28;20202;-33
2022/09/27 07:26:17;;;;;;;4.30;1.70;;;12.30;99.90;;;;;;5087169;28;20203;-32
2022/09/27 07:28:45;;;;;;;4.10;2.37;;;12.20;99.90;;;;;;5088162;28;20700;-33
2022/09/27 07:31:15;;;;;;;2.23;2.03;;;12.30;99.90;;;;;;5086984;28;20210;-33
2022/09/27 07:33:43;;;;;;;3.53;1.80;;;12.30;99.90;;;;;;5083820;28;20604;-33
2022/09/27 07:36:11;;;;;;;5.40;1.90;;;12.30;99.90;;;;;;5086804;28;20213;-33
2022/09/27 07:38:39;;;;;;;2.97;2.10;;;12.40;99.90;;;;;;5087270;28;20203;-28
2022/09/27 07:41:08;;;;;;;6.57;2.37;;;12.40;99.90;;;;;;5088477;28;20778;-30
2022/09/27 07:43:38;;;;;;;6.23;2.60;;;12.40;99.90;;;;;;5084229;28;20215;-30
2022/09/27 07:46:08;;;;;;;4.40;2.20;;;12.40;99.90;;;;;;5087477;28;20409;-30
2022/09/27 07:48:40;;;;;;;2.83;2.00;;;12.50;99.90;;;;;;5087148;28;20817;-29
2022/09/27 07:51:09;;;;;;;3.10;2.10;;;12.50;99.90;;;;;;5084802;28;20233;-29
2022/09/27 07:53:36;;;;;;;8.47;2.70;;;12.50;99.90;;;;;;5079566;28;20344;-30
2022/09/27 07:56:04;;;;;;;4.27;2.63;;;12.50;99.90;;;;;;5084213;28;20201;-29
2022/09/27 07:58:31;;;;;;;5.73;2.70;;;12.50;99.90;;;;;;5083875;28;20743;-30
2022/09/27 08:01:01;;;;;;;10.37;2.83;;;12.60;99.90;;;;;;5087819;28;20199;-30
2022/09/27 08:03:33;;;;;;;6.40;2.80;;;12.60;99.90;;;;;;5081024;28;20209;-29
2022/09/27 08:06:03;;;;;;;3.57;2.30;;;12.70;99.90;;;;;;5079306;28;20234;-29
2022/09/27 08:08:30;;;;;;;5.83;2.30;;;12.70;99.90;;;;;;5085938;28;20604;-30
2022/09/27 08:10:57;;;;;;;4.07;2.13;;;12.70;99.90;;;;;;5087513;28;20191;-29
2022/09/27 08:13:28;;;;;;;11.93;3.90;;;12.80;99.90;;;;;;5084613;28;20206;-30
2022/09/27 08:16:00;;;;;;;10.37;3.53;;;12.80;99.90;;;;;;5080777;28;20297;-29
2022/09/27 08:18:30;;;;;;;7.57;2.60;;;12.80;99.90;;;;;;5084615;28;20647;-30
2022/09/27 08:21:00;;;;;;;12.10;3.17;;;12.80;99.90;;;;;;5079278;28;20615;-29
2022/09/27 08:23:30;;;;;;;3.73;2.27;;;12.90;99.90;;;;;;5085864;28;20214;-29
2022/09/27 08:26:01;;;;;;;3.00;1.80;;;12.90;99.90;;;;;;5085986;28;20239;-30
2022/09/27 08:28:29;;;;;;;5.73;2.17;;;12.90;99.90;;;;;;5086116;28;20199;-29
2022/09/27 08:30:59;;;;;;;4.00;2.33;;;12.90;99.90;;;;;;5086174;28;20206;-29
2022/09/27 08:33:28;;;;;;;5.47;2.13;;;12.90;99.90;;;;;;5071074;28;20683;-29
2022/09/27 08:36:02;;;;;;;7.07;1.97;;;12.80;99.90;;;;;;5082738;28;20207;-29
2022/09/27 08:38:32;;;;;;;8.40;2.30;;;12.90;99.90;;;;;;5085306;28;20199;-29
2022/09/27 08:41:38;;;;;;;5.80;2.10;;;12.90;99.90;;;;;;5087127;28;20669;-30
2022/09/27 08:44:22;;;;;;;5.50;1.80;;;12.90;99.90;;;;;;5085635;28;20195;-29
2022/09/27 08:46:57;;;;;;;4.93;2.20;;;13.00;99.90;;;;;;5083624;28;20699;-30
2022/09/27 08:49:44;;;;;;;4.77;2.23;;;13.00;99.90;;;;;;5083639;28;20217;-30
2022/09/27 08:52:34;;;;;;;6.70;1.93;;;13.00;99.90;;;;;;5085650;28;20583;-30
2022/09/27 08:55:05;;;;;;;3.70;1.80;;;13.10;99.90;;;;;;5073032;28;20221;-30
2022/09/27 08:57:35;;;;;;;1.63;1.43;;;13.10;99.90;;;;;;5083392;28;20199;-29
2022/09/27 09:00:05;;;;;;;3.60;1.50;;;13.10;99.90;;;;;;5083306;28;20233;-30
2022/09/27 09:02:35;;;;;;;2.40;1.60;;;13.10;99.90;;;;;;5085286;28;20988;-30
2022/09/27 09:05:13;;;;;;;3.50;1.70;;;13.10;99.90;;;;;;5081774;28;20298;-29
2022/09/27 09:08:21;;;;;;;3.20;1.60;;;13.10;99.90;;;;;;5065947;28;20635;-30
2022/09/27 09:14:20;;;;;;;3.40;1.43;;;13.20;99.90;;;;;;5056350;28;20262;-30
2022/09/27 09:17:03;;;;;;;7.77;1.80;;;13.10;99.90;;;;;;5087257;28;20203;-29
2022/09/27 09:19:52;;;;;;;4.83;1.67;;;13.10;99.90;;;;;;5080320;28;20206;-29
2022/09/27 09:22:19;;;;;;;11.87;1.87;;;13.10;99.90;;;;;;5085775;28;20209;-30
2022/09/27 09:25:11;;;;;;;2.70;1.67;;;13.10;99.90;;;;;;5072118;28;20202;-30
2022/09/27 09:27:47;;;;;;;4.97;1.50;;;13.10;99.90;;;;;;5072586;28;20206;-30
2022/09/27 09:30:47;;;;;;;2.53;1.30;;;13.10;99.90;;;;;;5084252;28;20199;-30
2022/09/27 09:33:26;;;;;;;5.97;1.63;;;13.10;99.90;;;;;;5081930;28;20218;-30
2022/09/27 09:36:19;;;;;;;4.03;1.43;;;13.10;99.90;;;;;;5081494;28;20205;-33
2022/09/27 09:39:12;;;;;;;5.63;1.50;;;13.10;99.90;;;;;;5065334;28;20207;-33
2022/09/27 09:42:08;;;;;;;4.83;1.40;;;13.10;99.90;;;;;;5073487;28;20214;-33
2022/09/27 09:44:47;;;;;;;5.67;1.10;;;13.00;99.90;;;;;;5081967;28;20332;-32
2022/09/27 09:47:34;;;;;;;6.30;2.00;;;13.00;99.90;;;;;;5082802;28;20592;-32
2022/09/27 09:50:26;;;;;;;5.63;1.30;;;13.00;99.90;;;;;;5084080;28;20578;-32
2022/09/27 09:53:18;;;;;;;2.97;1.00;;;13.00;99.90;;;;;;5065362;28;20255;-32
2022/09/27 09:55:52;;;;;;;4.77;1.50;;;13.00;99.90;;;;;;5070185;28;20264;-33
2022/09/27 09:58:35;;;;;;;4.93;1.23;;;13.00;99.90;;;;;;5073887;28;20198;-33
2022/09/27 10:01:34;;;;;;;4.27;1.50;;;13.00;99.90;;;;;;5081956;28;20524;-32
2022/09/27 10:04:02;;;;;;;4.23;1.00;;;13.00;99.90;;;;;;5083479;28;20218;-33
2022/09/27 10:06:30;;;;;;;4.30;1.40;;;13.00;99.90;;;;;;5082251;28;20681;-32
2022/09/27 10:09:01;;;;;;;4.23;1.13;;;13.00;99.90;;;;;;5085620;28;20219;-33
2022/09/27 10:11:38;;;;;;;4.00;1.03;;;13.00;99.90;;;;;;5062853;28;20760;-32
2022/09/27 10:14:13;;;;;;;4.20;1.00;;;13.00;99.90;;;;;;5078703;28;20723;-33
2022/09/27 10:16:47;;;;;;;2.83;0.97;;;13.00;99.90;;;;;;5076508;28;20222;-33
2022/09/27 10:19:25;;;;;;;4.67;1.17;;;13.10;99.90;;;;;;5074234;28;20238;-32
2022/09/27 10:21:57;;;;;;;2.03;1.10;;;13.10;99.90;;;;;;5082938;28;20218;-32
2022/09/27 10:24:24;;;;;;;4.40;1.03;;;13.20;99.90;;;;;;5081584;28;20209;-33
2022/09/27 10:26:58;;;;;;;7.53;1.30;;;13.20;99.90;;;;;;5081453;28;20280;-33
2022/09/27 10:29:33;;;;;;;6.13;1.50;;;13.30;99.90;;;;;;5077384;28;21363;-33
2022/09/27 10:32:19;;;;;;;8.43;2.00;;;13.40;99.90;;;;;;5078682;28;20568;-33
2022/09/27 10:34:50;;;;;;;13.30;2.40;;;13.40;99.90;;;;;;5076113;28;20198;-34
2022/09/27 10:37:25;;;;;;;9.00;1.90;;;13.50;99.90;;;;;;5074418;28;20322;-33
2022/09/27 10:39:52;;;;;;;6.77;1.80;;;13.60;99.90;;;;;;5084585;28;20222;-33
2022/09/27 10:42:37;;;;;;;6.13;1.50;;;13.60;99.90;;;;;;5076289;28;20264;-33
2022/09/27 10:45:27;;;;;;;7.23;2.13;;;13.60;99.90;;;;;;5086969;28;20870;-33
2022/09/27 10:47:59;;;;;;;5.53;1.47;;;13.70;99.90;;;;;;5080943;28;20455;-33
2022/09/27 10:50:30;;;;;;;7.33;1.90;;;13.70;99.90;;;;;;5064690;28;20210;-33
2022/09/27 10:53:20;;;;;;;7.00;1.60;;;13.80;99.90;;;;;;5058878;28;20224;-33
2022/09/27 10:55:53;;;;;;;6.07;2.00;;;13.80;99.90;;;;;;5082668;28;20746;-33
2022/09/27 10:58:27;;;;;;;7.43;1.97;;;13.90;99.90;;;;;;5082227;28;20199;-33
2022/09/27 11:01:05;;;;;;;9.80;2.50;;;14.00;99.90;;;;;;5082880;28;20240;-33
2022/09/27 11:03:45;;;;;;;6.53;2.30;;;14.00;99.90;;;;;;5082962;28;20195;-33
2022/09/27 11:06:19;;;;;;;7.17;1.90;;;14.10;99.90;;;;;;5081859;28;20677;-33
2022/09/27 11:08:48;;;;;;;10.37;1.83;;;14.10;99.90;;;;;;5083863;28;20634;-33
2022/09/27 11:11:27;;;;;;;7.33;2.03;;;14.20;99.90;;;;;;5080926;28;20221;-33
2022/09/27 11:14:18;;;;;;;5.23;1.80;;;14.20;99.90;;;;;;5070320;28;20219;-33
2022/09/27 11:17:20;;;;;;;8.77;1.97;;;14.30;99.90;;;;;;5080802;28;20191;-33
2022/09/27 11:20:03;;;;;;;10.23;2.10;;;14.30;99.90;;;;;;5063844;28;20231;-33
2022/09/27 11:22:52;;;;;;;5.40;2.00;;;14.30;99.90;;;;;;5064278;28;20639;-33
2022/09/27 11:25:50;;;;;;;6.87;1.70;;;14.30;99.90;;;;;;5081514;28;20221;-33
2022/09/27 11:28:39;;;;;;;6.07;1.80;;;14.30;99.90;;;;;;5080296;28;20199;-34
2022/09/27 11:31:15;;;;;;;4.47;1.50;;;14.30;99.90;;;;;;5080879;28;20219;-33
2022/09/27 11:34:35;;;;;;;4.83;1.60;;;14.30;99.90;;;;;;5085718;28;20310;-33
2022/09/27 11:37:30;;;;;;;6.03;1.90;;;14.40;99.90;;;;;;5084899;28;20283;-33
2022/09/27 11:40:41;;;;;;;4.97;2.07;;;14.40;99.90;;;;;;5072016;28;20234;-33
2022/09/27 11:43:46;;;;;;;4.23;1.50;;;14.50;99.90;;;;;;5085915;28;20238;-33
2022/09/27 11:46:36;;;;;;;2.40;0.80;;;14.50;99.90;;;;;;5083485;28;20213;-33
2022/09/27 11:49:24;;;;;;;2.33;0.77;;;14.40;99.90;;;;;;5084837;28;20222;-33
2022/09/27 11:52:17;;;;;;;2.10;0.70;;;14.30;99.90;;;;;;5086541;28;20215;-33
2022/09/27 11:54:59;;;;;;;5.93;1.03;;;14.20;99.90;;;;;;5080289;28;20213;-33
2022/09/27 11:57:40;;;;;;;2.80;0.53;;;14.10;99.90;;;;;;5083249;28;20230;-33
2022/09/27 12:00:21;;;;;;;1.63;0.57;;;14.00;99.90;;;;;;5085587;28;20202;-33
2022/09/27 12:02:54;;;;;;;3.63;0.70;;;13.90;99.90;;;;;;5084389;28;20207;-32
2022/09/27 12:05:30;;;;;;;2.03;0.70;;;13.80;99.90;;;;;;5087676;28;20237;-33
2022/09/27 12:08:25;;;;;;;1.90;0.80;;;13.70;99.90;;;;;;5086277;28;20218;-33
2022/09/27 12:11:02;;;;;;;3.90;0.70;;;13.70;99.90;;;;;;5086196;28;20661;-31
2022/09/27 12:13:38;;;;;;;4.87;0.77;;;13.70;99.90;;;;;;5075953;28;20223;-33
2022/09/27 12:16:13;;;;;;;4.27;0.90;;;13.70;99.90;;;;;;5069082;28;20738;-33
2022/09/27 12:18:41;;;;;;;5.43;0.80;;;13.80;99.90;;;;;;5084247;28;20291;-33
2022/09/27 12:21:10;;;;;;;1.00;0.40;;;13.90;99.90;;;;;;5082545;28;20211;-33
2022/09/27 12:23:56;;;;;;;3.60;0.90;;;13.90;99.90;;;;;;5084028;28;20210;-33
2022/09/27 12:26:38;;;;;;;4.83;0.80;;;13.90;99.90;;;;;;5083959;28;20268;-33
2022/09/27 12:29:17;;;;;;;2.97;0.77;;;13.90;99.90;;;;;;5075560;28;20596;-33
2022/09/27 12:32:14;;;;;;;3.67;1.00;;;14.00;99.90;;;;;;5083730;28;20210;-33
2022/09/27 12:34:52;;;;;;;3.80;1.00;;;14.00;99.90;;;;;;5085972;28;20271;-33
2022/09/27 12:37:27;;;;;;;2.67;0.90;;;13.90;99.90;;;;;;5086633;28;20199;-33
2022/09/27 12:40:01;;;;;;;3.50;0.97;;;14.00;99.90;;;;;;5084635;28;20195;-33
2022/09/27 12:42:41;;;;;;;3.33;1.00;;;14.00;99.90;;;;;;5084035;28;20641;-33
2022/09/27 12:45:14;;;;;;;3.00;0.70;;;14.00;99.90;;;;;;5084200;28;20209;-33
2022/09/27 12:48:00;;;;;;;3.40;1.13;;;14.00;99.90;;;;;;5075305;28;20210;-33
2022/09/27 12:50:31;;;;;;;3.30;0.90;;;14.10;99.90;;;;;;5082532;28;20264;-33
2022/09/27 12:53:22;;;;;;;3.70;0.90;;;14.10;99.90;;;;;;5078318;28;20307;-33
2022/09/27 12:56:09;;;;;;;6.20;1.20;;;14.20;99.90;;;;;;5067666;28;20674;-33
2022/09/27 12:58:56;;;;;;;5.13;1.40;;;14.20;99.90;;;;;;5083198;28;20673;-33
2022/09/27 13:01:50;;;;;;;2.70;0.73;;;14.20;99.90;;;;;;5078513;28;20202;-33
2022/09/27 13:04:43;;;;;;;4.10;0.80;;;14.30;99.90;;;;;;5066640;28;20225;-33
2022/09/27 13:07:36;;;;;;;2.83;0.53;;;14.20;99.90;;;;;;5077715;28;20226;-33
2022/09/27 13:10:18;;;;;;;1.57;0.87;;;14.20;99.90;;;;;;5084687;28;20248;-33
2022/09/27 13:12:52;;;;;;;2.80;1.10;;;14.20;99.90;;;;;;5081508;28;20728;-33
2022/09/27 13:15:27;;;;;;;7.30;1.50;;;14.20;99.90;;;;;;5077425;28;20210;-33
2022/09/27 13:18:00;;;;;;;4.87;1.30;;;14.20;99.90;;;;;;5080284;28;20352;-33
2022/09/27 13:20:32;;;;;;;4.60;1.70;;;14.20;99.90;;;;;;5080942;28;20228;-34
2022/09/27 13:23:03;;;;;;;3.90;1.50;;;14.20;99.90;;;;;;5084499;28;20631;-33
2022/09/27 13:25:52;;;;;;;8.43;1.70;;;14.20;99.90;;;;;;5083908;28;20574;-33
2022/09/27 13:28:30;;;;;;;3.17;1.00;;;14.20;99.90;;;;;;5081972;28;20364;-33
2022/09/27 13:31:15;;;;;;;5.00;1.40;;;14.20;99.90;;;;;;5081859;28;20320;-33
2022/09/27 13:33:53;;;;;;;2.77;1.40;;;14.10;99.90;;;;;;5084829;28;20219;-33
2022/09/27 13:36:23;;;;;;;2.93;1.20;;;14.10;99.90;;;;;;5081050;28;20203;-33